Cushman, Arkansas
Current Conditions -  °F | °C
As of 3:35 PM on Wednesday 17 Dec 2014 (Local Time) from KBVX Reporting Station
Broken Clouds Broken Clouds  
Wind Chill: 39°   Ceiling: 9000
Heat Index: 39°   Visibility: 10mi
Dew Point: 27°   Wind: 0mph
Humidity: 61%   Direction: NA
Pressure: 30.27"   Gusts: NA
Location:  35.87°N, 91.75°W
Report Text: KBVX 172135Z AUTO 00000KT 10SM BKN090 04/M03 A3027 RMK AO1
Loading
Personal Weather Stations






























Interactive Weather Map New forecast layout! Learn more

10-Day Weather Forecast

Advertisements
Track Severe Weather on mobile